createdAt,value
2022-08-11T00:01:21.150Z,1.70
2022-08-11T00:04:07.265Z,2.40
2022-08-11T00:06:54.515Z,2.92
2022-08-11T00:09:40.897Z,2.63
2022-08-11T00:12:27.886Z,2.75
2022-08-11T00:15:13.749Z,2.72
2022-08-11T00:18:00.195Z,3.50
2022-08-11T00:20:47.281Z,3.45
2022-08-11T00:23:33.627Z,2.95
2022-08-11T00:26:19.772Z,3.20
2022-08-11T00:29:10.481Z,3.05
2022-08-11T00:31:58.313Z,3.53
2022-08-11T00:34:46.553Z,3.08
2022-08-11T00:37:32.861Z,3.47
2022-08-11T00:40:44.182Z,3.40
2022-08-11T00:43:30.022Z,3.85
2022-08-11T00:46:26.458Z,3.53
2022-08-11T00:49:24.524Z,3.03
2022-08-11T00:52:22.216Z,3.70
2022-08-11T00:55:31.148Z,3.45
2022-08-11T00:58:22.911Z,3.20
2022-08-11T01:01:18.543Z,3.67
2022-08-11T01:04:35.891Z,4.47
2022-08-11T01:08:00.684Z,4.05
2022-08-11T01:11:02.857Z,3.58
2022-08-11T01:13:54.237Z,3.58
2022-08-11T01:17:05.112Z,2.75
2022-08-11T01:20:45.325Z,3.20
2022-08-11T01:23:30.873Z,2.97
2022-08-11T01:26:22.900Z,3.30
2022-08-11T01:29:49.496Z,3.15
2022-08-11T01:33:11.625Z,3.35
2022-08-11T01:36:03.102Z,2.80
2022-08-11T01:39:31.409Z,2.88
2022-08-11T01:43:13.373Z,2.78
2022-08-11T01:46:06.299Z,2.53
2022-08-11T01:50:06.425Z,3.10
2022-08-11T01:52:40.089Z,2.80
2022-08-11T01:55:55.365Z,2.55
2022-08-11T01:58:49.087Z,2.35
2022-08-11T02:01:38.057Z,2.78
2022-08-11T02:04:50.925Z,2.75
2022-08-11T02:07:52.815Z,2.53
2022-08-11T02:11:14.079Z,2.13
2022-08-11T02:14:36.777Z,2.80
2022-08-11T02:18:09.812Z,2.47
2022-08-11T02:21:18.278Z,2.33
2022-08-11T02:24:16.249Z,2.20
2022-08-11T02:27:14.263Z,2.33
2022-08-11T02:30:07.543Z,2.25
2022-08-11T02:33:25.703Z,2.95
2022-08-11T02:36:38.881Z,2.15
2022-08-11T02:39:39.712Z,2.10
2022-08-11T02:42:36.117Z,2.40
2022-08-11T02:45:54.808Z,2.25
2022-08-11T02:49:22.302Z,2.00
2022-08-11T02:52:24.893Z,2.60
2022-08-11T02:55:45.941Z,1.98
2022-08-11T02:59:19.207Z,2.10
2022-08-11T03:02:12.534Z,2.00
2022-08-11T03:04:58.603Z,2.20
2022-08-11T03:08:06.358Z,2.10
2022-08-11T03:11:38.274Z,1.73
2022-08-11T03:14:54.673Z,1.83
2022-08-11T03:18:11.325Z,2.03
2022-08-11T03:21:15.802Z,1.95
2022-08-11T03:24:31.611Z,2.10
2022-08-11T03:27:20.415Z,1.90
2022-08-11T03:30:06.202Z,1.73
2022-08-11T03:33:39.730Z,2.33
2022-08-11T03:36:28.724Z,2.05
2022-08-11T03:39:25.871Z,2.00
2022-08-11T03:42:40.040Z,2.10
2022-08-11T03:45:37.364Z,2.00
2022-08-11T03:48:28.859Z,1.90
2022-08-11T03:51:27.530Z,2.03
2022-08-11T03:55:08.794Z,2.20
2022-08-11T03:58:22.369Z,2.13
2022-08-11T04:01:08.406Z,2.28
2022-08-11T04:04:15.849Z,2.10
2022-08-11T04:07:20.241Z,2.42
2022-08-11T04:10:14.918Z,1.92
2022-08-11T04:13:28.768Z,1.92
2022-08-11T04:19:38.077Z,2.05
2022-08-11T04:23:03.511Z,2.40
2022-08-11T04:26:23.380Z,2.28
2022-08-11T04:29:35.895Z,2.38
2022-08-11T04:32:23.079Z,2.25
2022-08-11T04:35:24.150Z,2.55
2022-08-11T04:38:35.757Z,2.55
2022-08-11T04:41:33.334Z,2.22
2022-08-11T04:44:50.882Z,2.45
2022-08-11T04:48:24.255Z,2.38
2022-08-11T04:52:02.858Z,2.25
2022-08-11T04:55:46.937Z,2.88
2022-08-11T04:59:22.063Z,2.25
2022-08-11T05:02:41.386Z,2.83
2022-08-11T05:06:00.595Z,3.60
2022-08-11T05:09:23.965Z,3.67
2022-08-11T05:12:20.220Z,4.10
2022-08-11T05:15:51.420Z,3.78
2022-08-11T05:19:07.686Z,4.00
2022-08-11T05:22:16.621Z,3.70
2022-08-11T05:26:43.466Z,3.67
2022-08-11T05:29:19.550Z,3.47
2022-08-11T05:32:29.412Z,3.53
2022-08-11T05:36:01.779Z,3.38
2022-08-11T05:38:45.700Z,4.50
2022-08-11T05:41:50.730Z,4.25
2022-08-11T05:44:57.320Z,4.80
2022-08-11T05:48:02.340Z,5.10
2022-08-11T05:51:17.377Z,4.18
2022-08-11T05:54:28.525Z,4.50
2022-08-11T05:57:39.551Z,4.20
2022-08-11T06:00:41.026Z,4.78
2022-08-11T06:03:29.824Z,3.70
2022-08-11T06:06:16.024Z,3.03
2022-08-11T06:09:02.816Z,3.28
2022-08-11T06:11:48.601Z,3.38
2022-08-11T06:14:41.221Z,3.10
2022-08-11T06:17:38.690Z,3.00
2022-08-11T06:20:25.854Z,3.50
2022-08-11T06:23:15.004Z,4.00
2022-08-11T06:26:01.620Z,3.47
2022-08-11T06:28:48.257Z,3.10
2022-08-11T06:31:34.978Z,3.00
2022-08-11T06:34:49.034Z,3.22
2022-08-11T06:37:59.165Z,2.60
2022-08-11T06:41:12.982Z,2.90
2022-08-11T06:46:53.226Z,3.00
2022-08-11T06:50:03.075Z,2.83
2022-08-11T06:52:49.105Z,3.00
2022-08-11T06:55:58.816Z,3.00
2022-08-11T06:59:07.464Z,2.67
2022-08-11T07:02:14.917Z,2.40
2022-08-11T07:05:14.627Z,2.45
2022-08-11T07:08:33.938Z,2.40
2022-08-11T07:11:48.393Z,2.40
2022-08-11T07:14:59.936Z,2.85
2022-08-11T07:18:10.970Z,2.10
2022-08-11T07:22:00.528Z,2.65
2022-08-11T07:25:02.921Z,2.90
2022-08-11T07:28:29.621Z,2.70
2022-08-11T07:31:24.301Z,2.75
2022-08-11T07:34:21.941Z,2.70
2022-08-11T07:37:17.829Z,2.53
2022-08-11T07:40:04.902Z,2.47
2022-08-11T07:42:52.385Z,2.88
2022-08-11T07:46:04.447Z,3.33
2022-08-11T07:49:09.334Z,3.00
2022-08-11T07:52:14.588Z,2.67
2022-08-11T07:55:15.200Z,2.28
2022-08-11T07:58:21.972Z,2.97
2022-08-11T08:01:31.335Z,2.35
2022-08-11T08:04:37.479Z,3.03
2022-08-11T08:07:42.730Z,3.33
2022-08-11T08:10:48.033Z,2.70
2022-08-11T08:13:54.114Z,3.00
2022-08-11T08:16:59.022Z,2.90
2022-08-11T08:19:48.240Z,2.63
2022-08-11T08:22:48.391Z,2.65
2022-08-11T08:25:41.359Z,2.35
2022-08-11T08:28:32.333Z,2.50
2022-08-11T08:31:18.793Z,2.85
2022-08-11T08:34:04.614Z,2.67
2022-08-11T08:36:51.685Z,2.80
2022-08-11T08:39:38.103Z,2.15
2022-08-11T08:42:25.645Z,1.92
2022-08-11T08:45:16.298Z,2.13
2022-08-11T08:48:09.210Z,1.67
2022-08-11T08:51:22.048Z,1.95
2022-08-11T08:54:30.436Z,2.28
2022-08-11T08:57:19.997Z,1.92
2022-08-11T09:00:07.552Z,2.20
2022-08-11T09:02:55.261Z,2.15
2022-08-11T09:05:41.763Z,2.05
2022-08-11T09:08:30.663Z,2.30
2022-08-11T09:11:34.973Z,2.10
2022-08-11T09:14:52.266Z,1.77
2022-08-11T09:17:46.312Z,1.83
2022-08-11T09:20:38.563Z,2.22
2022-08-11T09:27:02.795Z,2.10
2022-08-11T09:29:49.946Z,1.90
2022-08-11T09:32:36.475Z,2.10
2022-08-11T09:35:22.661Z,2.30
2022-08-11T09:38:30.340Z,2.10
2022-08-11T09:41:16.188Z,2.22
2022-08-11T09:44:21.264Z,1.90
2022-08-11T09:47:15.467Z,1.88
2022-08-11T09:50:03.567Z,2.35
2022-08-11T09:53:16.936Z,1.92
2022-08-11T09:55:57.960Z,1.90
2022-08-11T09:58:44.897Z,1.80
2022-08-11T10:01:41.687Z,1.95
2022-08-11T10:04:47.104Z,2.05
2022-08-11T10:07:33.592Z,1.83
2022-08-11T10:10:22.849Z,1.88
2022-08-11T10:14:31.615Z,1.75
2022-08-11T10:16:28.736Z,1.60
2022-08-11T10:19:19.376Z,1.70
2022-08-11T10:22:27.638Z,1.80
2022-08-11T10:25:33.877Z,2.25
2022-08-11T10:28:33.689Z,2.10
2022-08-11T10:31:57.913Z,2.20
2022-08-11T10:34:51.243Z,1.45
2022-08-11T10:38:08.252Z,1.77
2022-08-11T10:41:13.330Z,1.70
2022-08-11T10:44:03.232Z,1.77
2022-08-11T10:47:08.954Z,1.48
2022-08-11T10:50:19.484Z,1.95
2022-08-11T10:53:26.802Z,1.92
2022-08-11T10:56:31.131Z,1.40
2022-08-11T10:59:20.393Z,1.60
2022-08-11T11:02:06.526Z,1.65
2022-08-11T11:05:13.759Z,1.70
2022-08-11T11:08:33.066Z,1.15
2022-08-11T11:11:20.818Z,1.27
2022-08-11T11:14:27.187Z,1.75
2022-08-11T11:17:14.230Z,1.70
2022-08-11T11:20:03.538Z,1.25
2022-08-11T11:22:53.760Z,1.67
2022-08-11T11:26:10.360Z,2.03
2022-08-11T11:29:33.777Z,1.58
2022-08-11T11:33:01.895Z,1.70
2022-08-11T11:36:20.672Z,2.10
2022-08-11T11:39:09.482Z,2.10
2022-08-11T11:41:58.004Z,2.10
2022-08-11T11:44:45.545Z,1.70
2022-08-11T11:47:32.972Z,1.90
2022-08-11T11:50:36.627Z,1.80
2022-08-11T11:53:23.278Z,1.80
2022-08-11T11:56:09.919Z,1.70
2022-08-11T11:59:14.948Z,1.77
2022-08-11T12:02:01.653Z,2.00
2022-08-11T12:04:58.174Z,1.83
2022-08-11T12:08:06.509Z,1.95
2022-08-11T12:11:37.821Z,1.88
2022-08-11T12:14:25.723Z,2.08
2022-08-11T12:17:11.605Z,1.83
2022-08-11T12:19:58.133Z,2.05
2022-08-11T12:23:02.955Z,2.13
2022-08-11T12:26:26.269Z,2.17
2022-08-11T12:29:13.773Z,2.05
2022-08-11T12:32:00.573Z,1.63
2022-08-11T12:34:46.477Z,1.88
2022-08-11T12:37:49.492Z,1.70
2022-08-11T12:44:25.132Z,1.38
2022-08-11T12:47:13.278Z,1.80
2022-08-11T12:50:31.512Z,2.35
2022-08-11T12:53:19.021Z,1.90
2022-08-11T12:56:25.602Z,1.92
2022-08-11T12:59:31.041Z,1.63
2022-08-11T13:02:40.045Z,1.70
2022-08-11T13:05:33.178Z,1.42
2022-08-11T13:08:35.513Z,1.38
2022-08-11T13:11:56.800Z,1.50
2022-08-11T13:14:44.256Z,1.58
2022-08-11T13:17:40.246Z,1.48
2022-08-11T13:20:30.729Z,1.50
2022-08-11T13:23:16.698Z,1.35
2022-08-11T13:26:03.395Z,1.38
2022-08-11T13:28:49.432Z,1.48
2022-08-11T13:31:35.206Z,1.73
2022-08-11T13:34:22.953Z,1.30
2022-08-11T13:37:13.102Z,1.60
2022-08-11T13:39:59.351Z,1.55
2022-08-11T13:42:45.883Z,1.40
2022-08-11T13:45:33.117Z,1.48
2022-08-11T13:48:19.090Z,1.63
2022-08-11T13:51:23.710Z,1.60
2022-08-11T13:54:30.101Z,1.40
2022-08-11T13:58:08.080Z,1.50
2022-08-11T14:00:25.214Z,1.38
2022-08-11T14:03:15.072Z,1.50
2022-08-11T14:06:03.528Z,1.52
2022-08-11T14:08:51.774Z,1.70
2022-08-11T14:12:22.193Z,1.60
2022-08-11T14:15:14.525Z,1.70
2022-08-11T14:18:20.327Z,1.80
2022-08-11T14:21:24.927Z,1.73
2022-08-11T14:24:11.695Z,1.55
2022-08-11T14:26:59.678Z,1.60
2022-08-11T14:29:48.861Z,1.60
2022-08-11T14:32:35.167Z,1.50
2022-08-11T14:35:39.049Z,1.50
2022-08-11T14:38:30.995Z,1.58
2022-08-11T14:41:36.465Z,1.50
2022-08-11T14:44:41.431Z,1.40
2022-08-11T14:47:29.259Z,1.35
2022-08-11T14:50:18.821Z,1.60
2022-08-11T14:53:11.811Z,1.42
2022-08-11T14:56:22.165Z,1.70
2022-08-11T14:59:08.296Z,1.80
2022-08-11T15:02:12.817Z,1.80
2022-08-11T15:05:00.596Z,1.80
2022-08-11T15:07:46.641Z,1.90
2022-08-11T15:10:33.051Z,1.42
2022-08-11T15:13:19.399Z,1.63
2022-08-11T15:16:25.004Z,1.35
2022-08-11T15:19:11.406Z,1.50
2022-08-11T15:22:15.857Z,1.75
2022-08-11T15:25:01.777Z,1.67
2022-08-11T15:28:12.434Z,1.88
2022-08-11T15:31:17.845Z,1.80
2022-08-11T15:34:24.907Z,1.50
2022-08-11T15:37:27.077Z,1.30
2022-08-11T15:40:48.223Z,1.60
2022-08-11T15:44:12.974Z,1.70
2022-08-11T15:47:02.690Z,1.60
2022-08-11T15:50:10.674Z,1.60
2022-08-11T15:53:23.456Z,1.40
2022-08-11T15:56:11.296Z,1.63
2022-08-11T15:59:41.995Z,1.42
2022-08-11T16:02:25.445Z,1.92
2022-08-11T16:05:45.317Z,1.77
2022-08-11T16:08:33.216Z,1.35
2022-08-11T16:11:21.419Z,1.45
2022-08-11T16:14:29.552Z,1.60
2022-08-11T16:17:18.558Z,1.55
2022-08-11T16:20:05.576Z,1.50
2022-08-11T16:23:02.187Z,1.48
2022-08-11T16:27:05.055Z,1.30
2022-08-11T16:28:59.428Z,1.70
2022-08-11T16:32:06.560Z,1.45
2022-08-11T16:35:47.536Z,2.10
2022-08-11T16:38:36.369Z,1.60
2022-08-11T16:41:44.588Z,1.67
2022-08-11T16:44:49.914Z,1.80
2022-08-11T16:48:01.902Z,1.63
2022-08-11T16:50:42.726Z,1.67
2022-08-11T16:54:00.246Z,1.83
2022-08-11T16:56:36.529Z,1.90
2022-08-11T16:59:32.499Z,1.40
2022-08-11T17:02:58.737Z,2.00
2022-08-11T17:06:12.096Z,1.60
2022-08-11T17:09:20.635Z,1.60
2022-08-11T17:12:27.133Z,1.45
2022-08-11T17:15:36.751Z,1.60
2022-08-11T17:18:43.377Z,1.85
2022-08-11T17:21:57.645Z,1.75
2022-08-11T17:24:46.162Z,1.60
2022-08-11T17:27:33.085Z,1.83
2022-08-11T17:30:19.586Z,1.88
2022-08-11T17:33:23.865Z,1.42
2022-08-11T17:36:11.783Z,1.80
2022-08-11T17:38:57.679Z,1.70
2022-08-11T17:42:03.308Z,1.60
2022-08-11T17:45:07.705Z,1.70
2022-08-11T17:48:12.991Z,1.70
2022-08-11T17:51:03.061Z,1.75
2022-08-11T17:54:23.828Z,2.00
2022-08-11T17:57:31.989Z,1.70
2022-08-11T18:00:18.089Z,1.80
2022-08-11T18:03:25.045Z,1.67
2022-08-11T18:06:13.301Z,1.60
2022-08-11T18:09:19.903Z,2.08
2022-08-11T18:12:26.285Z,1.95
2022-08-11T18:15:32.114Z,1.90
2022-08-11T18:18:36.737Z,1.92
2022-08-11T18:21:41.237Z,1.75
2022-08-11T18:24:48.853Z,1.75
2022-08-11T18:27:56.346Z,2.38
2022-08-11T18:31:05.838Z,2.00
2022-08-11T18:34:14.485Z,1.67
2022-08-11T18:37:24.786Z,2.05
2022-08-11T18:40:37.931Z,2.10
2022-08-11T18:43:44.850Z,2.50
2022-08-11T18:46:54.737Z,1.92
2022-08-11T18:50:05.431Z,1.73
2022-08-11T18:53:12.982Z,2.10
2022-08-11T18:56:18.321Z,1.98
2022-08-11T18:59:26.409Z,1.88
2022-08-11T19:02:48.580Z,1.85
2022-08-11T19:06:06.127Z,2.30
2022-08-11T19:09:26.327Z,2.10
2022-08-11T19:12:31.601Z,2.60
2022-08-11T19:15:37.208Z,2.72
2022-08-11T19:18:43.375Z,2.30
2022-08-11T19:21:48.704Z,2.67
2022-08-11T19:24:54.693Z,2.13
2022-08-11T19:28:01.817Z,2.47
2022-08-11T19:31:06.681Z,2.40
2022-08-11T19:34:11.065Z,2.20
2022-08-11T19:37:15.327Z,2.35
2022-08-11T19:40:27.154Z,2.20
2022-08-11T19:43:31.697Z,2.50
2022-08-11T19:46:40.995Z,2.70
2022-08-11T19:49:45.997Z,2.60
2022-08-11T19:52:51.027Z,2.53
2022-08-11T19:55:56.606Z,2.65
2022-08-11T19:59:02.118Z,2.38
2022-08-11T20:02:13.829Z,2.50
2022-08-11T20:05:19.298Z,2.20
2022-08-11T20:08:26.042Z,2.08
2022-08-11T20:11:33.688Z,2.10
2022-08-11T20:14:40.126Z,2.53
2022-08-11T20:17:49.042Z,2.22
2022-08-11T20:20:54.115Z,2.28
2022-08-11T20:24:02.091Z,1.75
2022-08-11T20:27:07.721Z,2.05
2022-08-11T20:30:29.002Z,1.92
2022-08-11T20:33:34.030Z,1.60
2022-08-11T20:36:39.087Z,2.00
2022-08-11T20:39:43.984Z,2.03
2022-08-11T20:42:50.864Z,1.50
2022-08-11T20:45:57.200Z,1.90
2022-08-11T20:49:06.145Z,2.10
2022-08-11T20:52:12.578Z,2.10
2022-08-11T20:55:26.085Z,1.92
2022-08-11T20:59:13.798Z,1.85
2022-08-11T21:02:14.390Z,1.83
2022-08-11T21:05:19.941Z,1.83
2022-08-11T21:08:51.053Z,1.70
2022-08-11T21:11:57.082Z,2.00
2022-08-11T21:15:04.850Z,1.83
2022-08-11T21:18:12.107Z,2.00
2022-08-11T21:21:45.437Z,2.30
2022-08-11T21:24:51.896Z,1.77
2022-08-11T21:27:59.099Z,2.03
2022-08-11T21:31:04.793Z,1.75
2022-08-11T21:34:11.425Z,2.00
2022-08-11T21:37:18.816Z,1.88
2022-08-11T21:40:25.527Z,1.65
2022-08-11T21:43:32.241Z,1.88
2022-08-11T21:46:42.509Z,1.60
2022-08-11T21:49:48.419Z,2.05
2022-08-11T21:52:56.071Z,2.00
2022-08-11T21:56:01.042Z,1.80
2022-08-11T21:59:08.427Z,1.90
2022-08-11T22:02:13.148Z,1.80
2022-08-11T22:05:18.153Z,1.70
2022-08-11T22:08:22.788Z,1.80
2022-08-11T22:11:31.841Z,1.83
2022-08-11T22:14:37.594Z,2.30
2022-08-11T22:17:42.154Z,1.90
2022-08-11T22:20:47.166Z,1.98
2022-08-11T22:23:56.599Z,1.80
2022-08-11T22:27:01.652Z,2.00
2022-08-11T22:30:06.266Z,1.98
2022-08-11T22:33:11.983Z,1.52
2022-08-11T22:36:20.181Z,1.77
2022-08-11T22:39:26.606Z,2.00
2022-08-11T22:42:33.650Z,2.10
2022-08-11T22:45:39.221Z,1.77
2022-08-11T22:48:46.618Z,1.85
2022-08-11T22:51:53.280Z,1.75
2022-08-11T22:54:58.273Z,2.13
2022-08-11T22:58:02.483Z,2.00
2022-08-11T23:01:08.217Z,1.85
2022-08-11T23:04:15.197Z,2.22
2022-08-11T23:07:51.431Z,1.98
2022-08-11T23:10:47.039Z,1.90
2022-08-11T23:13:52.196Z,2.10
2022-08-11T23:16:57.105Z,2.00
2022-08-11T23:20:21.723Z,2.60
2022-08-11T23:23:28.481Z,2.50
2022-08-11T23:26:34.797Z,2.50
2022-08-11T23:29:39.598Z,2.70
2022-08-11T23:32:45.848Z,1.98
2022-08-11T23:35:55.533Z,2.35
2022-08-11T23:39:03.951Z,1.80
2022-08-11T23:42:08.454Z,1.88
2022-08-11T23:45:12.932Z,1.90
2022-08-11T23:48:17.755Z,1.77
2022-08-11T23:51:22.094Z,1.30
2022-08-11T23:54:26.699Z,1.65
2022-08-11T23:57:32.351Z,1.50
